sensor_id;sensor_type;location;lat;lon;timestamp;temperature;humidity
5352;DHT22;2698;51.454;6.736;2022-07-05T00:01:41;17.70;99.90
5352;DHT22;2698;51.454;6.736;2022-07-05T00:04:08;17.70;99.90
5352;DHT22;2698;51.454;6.736;2022-07-05T00:06:35;17.60;99.90
5352;DHT22;2698;51.454;6.736;2022-07-05T00:09:02;17.70;99.90
5352;DHT22;2698;51.454;6.736;2022-07-05T00:11:29;17.60;99.90
5352;DHT22;2698;51.454;6.736;2022-07-05T00:13:55;17.60;99.90
5352;DHT22;2698;51.454;6.736;2022-07-05T00:16:22;17.50;99.90
5352;DHT22;2698;51.454;6.736;2022-07-05T00:18:50;17.50;99.90
5352;DHT22;2698;51.454;6.736;2022-07-05T00:21:17;17.40;99.90
5352;DHT22;2698;51.454;6.736;2022-07-05T00:23:44;17.30;99.90
5352;DHT22;2698;51.454;6.736;2022-07-05T00:26:11;17.30;99.90
5352;DHT22;2698;51.454;6.736;2022-07-05T00:28:38;17.20;99.90
5352;DHT22;2698;51.454;6.736;2022-07-05T00:31:05;17.20;99.90
5352;DHT22;2698;51.454;6.736;2022-07-05T00:33:32;17.30;99.90
5352;DHT22;2698;51.454;6.736;2022-07-05T00:36:00;17.30;99.90
5352;DHT22;2698;51.454;6.736;2022-07-05T00:38:27;17.30;99.90
5352;DHT22;2698;51.454;6.736;2022-07-05T00:40:54;17.30;99.90
5352;DHT22;2698;51.454;6.736;2022-07-05T00:43:20;17.40;99.90
5352;DHT22;2698;51.454;6.736;2022-07-05T00:45:47;17.40;99.90
5352;DHT22;2698;51.454;6.736;2022-07-05T00:48:14;17.40;99.90
5352;DHT22;2698;51.454;6.736;2022-07-05T00:50:41;17.40;99.90
5352;DHT22;2698;51.454;6.736;2022-07-05T00:53:10;17.40;99.90
5352;DHT22;2698;51.454;6.736;2022-07-05T00:55:37;17.50;99.90
5352;DHT22;2698;51.454;6.736;2022-07-05T00:58:03;17.50;99.90
5352;DHT22;2698;51.454;6.736;2022-07-05T01:00:30;17.50;99.90
5352;DHT22;2698;51.454;6.736;2022-07-05T01:02:57;17.40;99.90
5352;DHT22;2698;51.454;6.736;2022-07-05T01:05:24;17.40;99.90
5352;DHT22;2698;51.454;6.736;2022-07-05T01:07:51;17.30;99.90
5352;DHT22;2698;51.454;6.736;2022-07-05T01:10:19;17.30;99.90
5352;DHT22;2698;51.454;6.736;2022-07-05T01:12:46;17.40;99.90
5352;DHT22;2698;51.454;6.736;2022-07-05T01:15:13;17.40;99.90
5352;DHT22;2698;51.454;6.736;2022-07-05T01:17:41;17.40;99.90
5352;DHT22;2698;51.454;6.736;2022-07-05T01:20:08;17.50;99.90
5352;DHT22;2698;51.454;6.736;2022-07-05T01:22:50;17.40;99.90
5352;DHT22;2698;51.454;6.736;2022-07-05T01:25:19;17.40;99.90
5352;DHT22;2698;51.454;6.736;2022-07-05T01:27:46;17.40;99.90
5352;DHT22;2698;51.454;6.736;2022-07-05T01:30:14;17.30;99.90
5352;DHT22;2698;51.454;6.736;2022-07-05T01:32:41;17.20;99.90
5352;DHT22;2698;51.454;6.736;2022-07-05T01:35:09;17.20;99.90
5352;DHT22;2698;51.454;6.736;2022-07-05T01:37:36;17.10;99.90
5352;DHT22;2698;51.454;6.736;2022-07-05T01:40:06;17.00;99.90
5352;DHT22;2698;51.454;6.736;2022-07-05T01:42:33;17.00;99.90
5352;DHT22;2698;51.454;6.736;2022-07-05T01:45:00;17.00;99.90
5352;DHT22;2698;51.454;6.736;2022-07-05T01:47:27;16.90;99.90
5352;DHT22;2698;51.454;6.736;2022-07-05T01:49:57;17.00;99.90
5352;DHT22;2698;51.454;6.736;2022-07-05T01:52:27;16.90;99.90
5352;DHT22;2698;51.454;6.736;2022-07-05T01:54:56;17.00;99.90
5352;DHT22;2698;51.454;6.736;2022-07-05T01:57:24;17.00;99.90
5352;DHT22;2698;51.454;6.736;2022-07-05T01:59:51;17.10;99.90
5352;DHT22;2698;51.454;6.736;2022-07-05T02:02:18;17.10;99.90
5352;DHT22;2698;51.454;6.736;2022-07-05T02:04:45;17.00;99.90
5352;DHT22;2698;51.454;6.736;2022-07-05T02:07:11;16.90;99.90
5352;DHT22;2698;51.454;6.736;2022-07-05T02:09:38;16.90;99.90
5352;DHT22;2698;51.454;6.736;2022-07-05T02:12:05;16.90;99.90
5352;DHT22;2698;51.454;6.736;2022-07-05T02:14:34;16.90;99.90
5352;DHT22;2698;51.454;6.736;2022-07-05T02:17:01;16.90;99.90
5352;DHT22;2698;51.454;6.736;2022-07-05T02:19:28;16.80;99.90
5352;DHT22;2698;51.454;6.736;2022-07-05T02:21:55;16.80;99.90
5352;DHT22;2698;51.454;6.736;2022-07-05T02:24:21;16.70;99.90
5352;DHT22;2698;51.454;6.736;2022-07-05T02:26:48;16.70;99.90
5352;DHT22;2698;51.454;6.736;2022-07-05T02:29:15;16.80;99.90
5352;DHT22;2698;51.454;6.736;2022-07-05T02:31:44;16.70;99.90
5352;DHT22;2698;51.454;6.736;2022-07-05T02:34:10;16.70;99.90
5352;DHT22;2698;51.454;6.736;2022-07-05T02:36:38;16.70;99.90
5352;DHT22;2698;51.454;6.736;2022-07-05T02:39:04;16.70;99.90
5352;DHT22;2698;51.454;6.736;2022-07-05T02:41:31;16.80;99.90
5352;DHT22;2698;51.454;6.736;2022-07-05T02:43:58;16.80;99.90
5352;DHT22;2698;51.454;6.736;2022-07-05T02:46:25;16.80;99.90
5352;DHT22;2698;51.454;6.736;2022-07-05T02:48:53;16.80;99.90
5352;DHT22;2698;51.454;6.736;2022-07-05T02:51:20;16.70;99.90
5352;DHT22;2698;51.454;6.736;2022-07-05T02:53:47;16.60;99.90
5352;DHT22;2698;51.454;6.736;2022-07-05T02:56:13;16.60;99.90
5352;DHT22;2698;51.454;6.736;2022-07-05T02:58:40;16.50;99.90
5352;DHT22;2698;51.454;6.736;2022-07-05T03:01:07;16.50;99.90
5352;DHT22;2698;51.454;6.736;2022-07-05T03:03:34;16.40;99.90
5352;DHT22;2698;51.454;6.736;2022-07-05T03:06:02;16.40;99.90
5352;DHT22;2698;51.454;6.736;2022-07-05T03:08:29;16.30;99.90
5352;DHT22;2698;51.454;6.736;2022-07-05T03:10:55;16.30;99.90
5352;DHT22;2698;51.454;6.736;2022-07-05T03:13:22;16.20;99.90
5352;DHT22;2698;51.454;6.736;2022-07-05T03:15:49;16.20;99.90
5352;DHT22;2698;51.454;6.736;2022-07-05T03:18:16;16.20;99.90
5352;DHT22;2698;51.454;6.736;2022-07-05T03:20:43;16.20;99.90
5352;DHT22;2698;51.454;6.736;2022-07-05T03:23:11;16.20;99.90
5352;DHT22;2698;51.454;6.736;2022-07-05T03:25:38;16.30;99.90
5352;DHT22;2698;51.454;6.736;2022-07-05T03:28:04;16.20;99.90
5352;DHT22;2698;51.454;6.736;2022-07-05T03:30:31;16.20;99.90
5352;DHT22;2698;51.454;6.736;2022-07-05T03:32:58;16.30;99.90
5352;DHT22;2698;51.454;6.736;2022-07-05T03:35:26;16.30;99.90
5352;DHT22;2698;51.454;6.736;2022-07-05T03:37:53;16.30;99.90
5352;DHT22;2698;51.454;6.736;2022-07-05T03:40:22;16.30;99.90
5352;DHT22;2698;51.454;6.736;2022-07-05T03:42:49;16.30;99.90
5352;DHT22;2698;51.454;6.736;2022-07-05T03:45:15;16.20;99.90
5352;DHT22;2698;51.454;6.736;2022-07-05T03:47:42;16.20;99.90
5352;DHT22;2698;51.454;6.736;2022-07-05T03:50:09;16.20;99.90
5352;DHT22;2698;51.454;6.736;2022-07-05T03:52:36;16.20;99.90
5352;DHT22;2698;51.454;6.736;2022-07-05T03:55:03;16.10;99.90
5352;DHT22;2698;51.454;6.736;2022-07-05T03:57:31;16.10;99.90
5352;DHT22;2698;51.454;6.736;2022-07-05T03:59:58;16.10;99.90
5352;DHT22;2698;51.454;6.736;2022-07-05T04:02:25;16.20;99.90
5352;DHT22;2698;51.454;6.736;2022-07-05T04:04:52;16.20;99.90
5352;DHT22;2698;51.454;6.736;2022-07-05T04:07:18;16.20;99.90
5352;DHT22;2698;51.454;6.736;2022-07-05T04:09:45;16.20;99.90
5352;DHT22;2698;51.454;6.736;2022-07-05T04:12:12;16.20;99.90
5352;DHT22;2698;51.454;6.736;2022-07-05T04:14:40;16.20;99.90
5352;DHT22;2698;51.454;6.736;2022-07-05T04:17:07;16.20;99.90
5352;DHT22;2698;51.454;6.736;2022-07-05T04:19:34;16.20;99.90
5352;DHT22;2698;51.454;6.736;2022-07-05T04:22:01;16.20;99.90
5352;DHT22;2698;51.454;6.736;2022-07-05T04:24:27;16.20;99.90
5352;DHT22;2698;51.454;6.736;2022-07-05T04:26:54;16.20;99.90
5352;DHT22;2698;51.454;6.736;2022-07-05T04:29:21;16.30;99.90
5352;DHT22;2698;51.454;6.736;2022-07-05T04:31:49;16.30;99.90
5352;DHT22;2698;51.454;6.736;2022-07-05T04:34:16;16.30;99.90
5352;DHT22;2698;51.454;6.736;2022-07-05T04:36:43;16.30;99.90
5352;DHT22;2698;51.454;6.736;2022-07-05T04:39:10;16.40;99.90
5352;DHT22;2698;51.454;6.736;2022-07-05T04:41:37;16.40;99.90
5352;DHT22;2698;51.454;6.736;2022-07-05T04:44:04;16.50;99.90
5352;DHT22;2698;51.454;6.736;2022-07-05T04:46:31;16.60;99.90
5352;DHT22;2698;51.454;6.736;2022-07-05T04:48:59;16.60;99.90
5352;DHT22;2698;51.454;6.736;2022-07-05T04:51:26;16.70;99.90
5352;DHT22;2698;51.454;6.736;2022-07-05T04:53:52;16.80;99.90
5352;DHT22;2698;51.454;6.736;2022-07-05T04:56:21;16.80;99.90
5352;DHT22;2698;51.454;6.736;2022-07-05T04:58:48;16.90;99.90
5352;DHT22;2698;51.454;6.736;2022-07-05T05:01:15;17.00;99.90
5352;DHT22;2698;51.454;6.736;2022-07-05T05:03:41;17.30;99.90
5352;DHT22;2698;51.454;6.736;2022-07-05T05:06:09;18.40;99.90
5352;DHT22;2698;51.454;6.736;2022-07-05T05:08:36;21.50;99.90
5352;DHT22;2698;51.454;6.736;2022-07-05T05:11:03;22.30;99.90
5352;DHT22;2698;51.454;6.736;2022-07-05T05:13:31;22.20;96.60
5352;DHT22;2698;51.454;6.736;2022-07-05T05:15:57;22.50;95.60
5352;DHT22;2698;51.454;6.736;2022-07-05T05:18:24;23.90;89.90
5352;DHT22;2698;51.454;6.736;2022-07-05T05:20:52;24.50;79.20
5352;DHT22;2698;51.454;6.736;2022-07-05T05:23:22;22.40;76.10
5352;DHT22;2698;51.454;6.736;2022-07-05T05:25:49;21.10;87.90
5352;DHT22;2698;51.454;6.736;2022-07-05T05:28:16;21.80;91.90
5352;DHT22;2698;51.454;6.736;2022-07-05T05:30:43;22.10;86.30
5352;DHT22;2698;51.454;6.736;2022-07-05T05:33:10;20.70;90.00
5352;DHT22;2698;51.454;6.736;2022-07-05T05:35:36;20.10;99.90
5352;DHT22;2698;51.454;6.736;2022-07-05T05:38:03;20.10;99.90
5352;DHT22;2698;51.454;6.736;2022-07-05T05:40:32;19.80;99.90
5352;DHT22;2698;51.454;6.736;2022-07-05T05:42:59;20.70;99.90
5352;DHT22;2698;51.454;6.736;2022-07-05T05:45:26;21.20;99.90
5352;DHT22;2698;51.454;6.736;2022-07-05T05:47:55;22.20;97.00
5352;DHT22;2698;51.454;6.736;2022-07-05T05:50:23;21.50;96.40
5352;DHT22;2698;51.454;6.736;2022-07-05T05:52:50;20.90;99.90
5352;DHT22;2698;51.454;6.736;2022-07-05T05:55:17;20.60;99.90
5352;DHT22;2698;51.454;6.736;2022-07-05T05:57:46;20.30;99.90
5352;DHT22;2698;51.454;6.736;2022-07-05T06:00:14;20.20;99.90
5352;DHT22;2698;51.454;6.736;2022-07-05T06:02:42;20.10;99.90
5352;DHT22;2698;51.454;6.736;2022-07-05T06:05:09;20.40;99.90
5352;DHT22;2698;51.454;6.736;2022-07-05T06:07:50;21.50;99.90
5352;DHT22;2698;51.454;6.736;2022-07-05T06:10:18;21.60;99.90
5352;DHT22;2698;51.454;6.736;2022-07-05T06:12:47;21.60;99.90
5352;DHT22;2698;51.454;6.736;2022-07-05T06:15:14;21.50;99.90
5352;DHT22;2698;51.454;6.736;2022-07-05T06:17:41;22.00;99.90
5352;DHT22;2698;51.454;6.736;2022-07-05T06:20:10;22.80;99.90
5352;DHT22;2698;51.454;6.736;2022-07-05T06:22:37;23.30;93.50
5352;DHT22;2698;51.454;6.736;2022-07-05T06:25:05;23.20;90.20
5352;DHT22;2698;51.454;6.736;2022-07-05T06:27:33;23.20;90.00
5352;DHT22;2698;51.454;6.736;2022-07-05T06:30:06;23.90;85.50
5352;DHT22;2698;51.454;6.736;2022-07-05T06:32:33;24.20;77.30
5352;DHT22;2698;51.454;6.736;2022-07-05T06:35:00;24.00;70.20
5352;DHT22;2698;51.454;6.736;2022-07-05T06:37:27;24.70;68.40
5352;DHT22;2698;51.454;6.736;2022-07-05T06:39:54;24.40;64.30
5352;DHT22;2698;51.454;6.736;2022-07-05T06:42:21;24.80;63.50
5352;DHT22;2698;51.454;6.736;2022-07-05T06:44:48;25.10;60.00
5352;DHT22;2698;51.454;6.736;2022-07-05T06:47:17;25.00;55.50
5352;DHT22;2698;51.454;6.736;2022-07-05T06:49:44;25.80;54.60
5352;DHT22;2698;51.454;6.736;2022-07-05T06:52:10;25.90;52.30
5352;DHT22;2698;51.454;6.736;2022-07-05T06:54:37;26.40;49.40
5352;DHT22;2698;51.454;6.736;2022-07-05T06:57:05;26.10;47.20
5352;DHT22;2698;51.454;6.736;2022-07-05T06:59:31;24.80;47.80
5352;DHT22;2698;51.454;6.736;2022-07-05T07:01:58;24.90;49.50
5352;DHT22;2698;51.454;6.736;2022-07-05T07:04:26;24.60;49.30
5352;DHT22;2698;51.454;6.736;2022-07-05T07:06:53;25.60;47.90
5352;DHT22;2698;51.454;6.736;2022-07-05T07:09:20;26.10;43.20
5352;DHT22;2698;51.454;6.736;2022-07-05T07:11:48;26.50;41.00
5352;DHT22;2698;51.454;6.736;2022-07-05T07:14:15;26.30;39.90
5352;DHT22;2698;51.454;6.736;2022-07-05T07:16:42;27.00;38.80
5352;DHT22;2698;51.454;6.736;2022-07-05T07:19:09;26.90;36.60
5352;DHT22;2698;51.454;6.736;2022-07-05T07:21:37;26.90;38.00
5352;DHT22;2698;51.454;6.736;2022-07-05T07:24:05;26.20;37.10
5352;DHT22;2698;51.454;6.736;2022-07-05T07:26:31;25.10;36.60
5352;DHT22;2698;51.454;6.736;2022-07-05T07:29:19;24.90;39.00
5352;DHT22;2698;51.454;6.736;2022-07-05T07:31:46;23.70;38.80
5352;DHT22;2698;51.454;6.736;2022-07-05T07:34:14;24.70;41.50
5352;DHT22;2698;51.454;6.736;2022-07-05T07:36:42;24.40;42.50
5352;DHT22;2698;51.454;6.736;2022-07-05T07:39:09;25.10;44.10
5352;DHT22;2698;51.454;6.736;2022-07-05T07:41:36;24.80;43.60
5352;DHT22;2698;51.454;6.736;2022-07-05T07:44:03;25.40;41.90
5352;DHT22;2698;51.454;6.736;2022-07-05T07:46:30;24.90;41.10
5352;DHT22;2698;51.454;6.736;2022-07-05T07:48:57;24.70;41.70
5352;DHT22;2698;51.454;6.736;2022-07-05T07:51:24;24.20;41.90
5352;DHT22;2698;51.454;6.736;2022-07-05T07:53:52;23.50;42.90
5352;DHT22;2698;51.454;6.736;2022-07-05T07:56:19;22.80;43.60
5352;DHT22;2698;51.454;6.736;2022-07-05T07:58:46;23.30;44.20
5352;DHT22;2698;51.454;6.736;2022-07-05T08:01:13;23.30;44.60
5352;DHT22;2698;51.454;6.736;2022-07-05T08:03:41;23.50;44.20
5352;DHT22;2698;51.454;6.736;2022-07-05T08:06:09;23.20;44.50
5352;DHT22;2698;51.454;6.736;2022-07-05T08:08:37;24.20;45.50
5352;DHT22;2698;51.454;6.736;2022-07-05T08:11:06;24.80;43.00
5352;DHT22;2698;51.454;6.736;2022-07-05T08:13:33;24.60;42.80
5352;DHT22;2698;51.454;6.736;2022-07-05T08:16:00;24.50;43.20
5352;DHT22;2698;51.454;6.736;2022-07-05T08:18:27;24.80;43.30
5352;DHT22;2698;51.454;6.736;2022-07-05T08:21:12;24.00;42.90
5352;DHT22;2698;51.454;6.736;2022-07-05T08:23:57;24.20;43.80
5352;DHT22;2698;51.454;6.736;2022-07-05T08:26:26;23.80;43.10
5352;DHT22;2698;51.454;6.736;2022-07-05T08:28:53;23.90;43.60
5352;DHT22;2698;51.454;6.736;2022-07-05T08:31:21;23.30;44.50
5352;DHT22;2698;51.454;6.736;2022-07-05T08:33:47;23.80;44.50
5352;DHT22;2698;51.454;6.736;2022-07-05T08:36:14;24.30;43.90
5352;DHT22;2698;51.454;6.736;2022-07-05T08:38:41;23.50;40.90
5352;DHT22;2698;51.454;6.736;2022-07-05T08:41:10;23.80;40.50
5352;DHT22;2698;51.454;6.736;2022-07-05T08:43:41;23.90;38.70
5352;DHT22;2698;51.454;6.736;2022-07-05T08:46:08;24.50;39.40
5352;DHT22;2698;51.454;6.736;2022-07-05T08:48:37;24.40;38.80
5352;DHT22;2698;51.454;6.736;2022-07-05T08:51:11;24.60;40.20
5352;DHT22;2698;51.454;6.736;2022-07-05T08:53:39;24.50;40.10
5352;DHT22;2698;51.454;6.736;2022-07-05T08:56:08;24.20;39.30
5352;DHT22;2698;51.454;6.736;2022-07-05T08:58:35;23.60;40.20
5352;DHT22;2698;51.454;6.736;2022-07-05T09:01:05;23.70;41.10
5352;DHT22;2698;51.454;6.736;2022-07-05T09:03:33;24.20;41.30
5352;DHT22;2698;51.454;6.736;2022-07-05T09:06:01;24.50;41.50
5352;DHT22;2698;51.454;6.736;2022-07-05T09:08:30;23.90;40.50
5352;DHT22;2698;51.454;6.736;2022-07-05T09:11:01;24.00;41.50
5352;DHT22;2698;51.454;6.736;2022-07-05T09:13:28;23.90;41.70
5352;DHT22;2698;51.454;6.736;2022-07-05T09:15:55;23.40;42.40
5352;DHT22;2698;51.454;6.736;2022-07-05T09:18:43;23.60;42.90
5352;DHT22;2698;51.454;6.736;2022-07-05T09:21:17;24.10;43.70
5352;DHT22;2698;51.454;6.736;2022-07-05T09:23:44;24.20;42.90
5352;DHT22;2698;51.454;6.736;2022-07-05T09:26:11;24.20;41.90
5352;DHT22;2698;51.454;6.736;2022-07-05T09:28:54;24.30;41.90
5352;DHT22;2698;51.454;6.736;2022-07-05T09:31:32;23.20;38.90
5352;DHT22;2698;51.454;6.736;2022-07-05T09:34:08;23.70;40.40
5352;DHT22;2698;51.454;6.736;2022-07-05T09:36:51;24.20;40.80
5352;DHT22;2698;51.454;6.736;2022-07-05T09:39:35;24.00;37.40
5352;DHT22;2698;51.454;6.736;2022-07-05T09:42:13;23.60;37.70
5352;DHT22;2698;51.454;6.736;2022-07-05T09:44:43;24.20;39.30
5352;DHT22;2698;51.454;6.736;2022-07-05T09:47:12;25.10;37.90
5352;DHT22;2698;51.454;6.736;2022-07-05T09:49:41;24.80;37.30
5352;DHT22;2698;51.454;6.736;2022-07-05T09:52:09;25.00;36.60
5352;DHT22;2698;51.454;6.736;2022-07-05T09:54:35;24.00;36.10
5352;DHT22;2698;51.454;6.736;2022-07-05T09:57:03;23.90;37.50
5352;DHT22;2698;51.454;6.736;2022-07-05T09:59:29;23.70;38.60
5352;DHT22;2698;51.454;6.736;2022-07-05T10:01:56;23.50;39.20
5352;DHT22;2698;51.454;6.736;2022-07-05T10:04:23;23.90;39.40
5352;DHT22;2698;51.454;6.736;2022-07-05T10:06:51;24.00;38.40
5352;DHT22;2698;51.454;6.736;2022-07-05T10:09:19;24.80;38.70
5352;DHT22;2698;51.454;6.736;2022-07-05T10:11:46;24.50;35.20
5352;DHT22;2698;51.454;6.736;2022-07-05T10:14:16;24.10;35.80
5352;DHT22;2698;51.454;6.736;2022-07-05T10:16:59;24.20;35.80
5352;DHT22;2698;51.454;6.736;2022-07-05T10:19:31;24.90;35.70
5352;DHT22;2698;51.454;6.736;2022-07-05T10:22:01;24.90;34.60
5352;DHT22;2698;51.454;6.736;2022-07-05T10:24:33;25.50;32.90
5352;DHT22;2698;51.454;6.736;2022-07-05T10:27:01;25.90;32.80
5352;DHT22;2698;51.454;6.736;2022-07-05T10:29:29;26.20;32.40
5352;DHT22;2698;51.454;6.736;2022-07-05T10:31:56;26.30;32.90
5352;DHT22;2698;51.454;6.736;2022-07-05T10:34:24;25.80;32.40
5352;DHT22;2698;51.454;6.736;2022-07-05T10:36:51;24.80;33.40
5352;DHT22;2698;51.454;6.736;2022-07-05T10:39:20;24.60;36.00
5352;DHT22;2698;51.454;6.736;2022-07-05T10:41:50;24.10;37.10
5352;DHT22;2698;51.454;6.736;2022-07-05T10:44:26;23.80;36.70
5352;DHT22;2698;51.454;6.736;2022-07-05T10:47:06;23.80;36.30
5352;DHT22;2698;51.454;6.736;2022-07-05T10:49:34;23.80;36.60
5352;DHT22;2698;51.454;6.736;2022-07-05T10:52:02;23.60;36.80
5352;DHT22;2698;51.454;6.736;2022-07-05T10:54:30;24.20;37.00
5352;DHT22;2698;51.454;6.736;2022-07-05T10:57:25;24.40;36.60
5352;DHT22;2698;51.454;6.736;2022-07-05T11:00:04;25.10;35.70
5352;DHT22;2698;51.454;6.736;2022-07-05T11:02:31;24.60;35.60
5352;DHT22;2698;51.454;6.736;2022-07-05T11:04:59;24.00;33.90
5352;DHT22;2698;51.454;6.736;2022-07-05T11:07:57;24.20;33.00
5352;DHT22;2698;51.454;6.736;2022-07-05T11:10:25;24.80;33.80
5352;DHT22;2698;51.454;6.736;2022-07-05T11:12:52;24.90;33.30
5352;DHT22;2698;51.454;6.736;2022-07-05T11:15:19;25.00;32.40
5352;DHT22;2698;51.454;6.736;2022-07-05T11:17:46;25.20;33.00
5352;DHT22;2698;51.454;6.736;2022-07-05T11:20:14;24.80;32.10
5352;DHT22;2698;51.454;6.736;2022-07-05T11:23:07;24.90;31.60
5352;DHT22;2698;51.454;6.736;2022-07-05T11:25:42;24.90;30.00
5352;DHT22;2698;51.454;6.736;2022-07-05T11:28:17;25.70;30.60
5352;DHT22;2698;51.454;6.736;2022-07-05T11:30:45;25.60;30.20
5352;DHT22;2698;51.454;6.736;2022-07-05T11:33:32;25.50;30.00
5352;DHT22;2698;51.454;6.736;2022-07-05T11:36:00;25.00;29.90
5352;DHT22;2698;51.454;6.736;2022-07-05T11:38:27;24.90;30.50
5352;DHT22;2698;51.454;6.736;2022-07-05T11:41:10;25.30;31.00
5352;DHT22;2698;51.454;6.736;2022-07-05T11:43:38;25.50;30.30
5352;DHT22;2698;51.454;6.736;2022-07-05T11:46:06;25.60;30.20
5352;DHT22;2698;51.454;6.736;2022-07-05T11:48:33;25.30;30.00
5352;DHT22;2698;51.454;6.736;2022-07-05T11:51:12;25.20;31.10
5352;DHT22;2698;51.454;6.736;2022-07-05T11:53:40;25.10;32.00
5352;DHT22;2698;51.454;6.736;2022-07-05T11:56:09;25.40;32.10
5352;DHT22;2698;51.454;6.736;2022-07-05T11:58:36;25.80;32.60
5352;DHT22;2698;51.454;6.736;2022-07-05T12:01:03;25.90;31.60
5352;DHT22;2698;51.454;6.736;2022-07-05T12:03:31;26.00;31.50
5352;DHT22;2698;51.454;6.736;2022-07-05T12:05:58;25.80;31.20
5352;DHT22;2698;51.454;6.736;2022-07-05T12:08:25;25.90;30.60
5352;DHT22;2698;51.454;6.736;2022-07-05T12:10:52;25.90;30.40
5352;DHT22;2698;51.454;6.736;2022-07-05T12:13:45;25.70;30.70
5352;DHT22;2698;51.454;6.736;2022-07-05T12:16:13;25.90;30.60
5352;DHT22;2698;51.454;6.736;2022-07-05T12:18:50;25.50;30.90
5352;DHT22;2698;51.454;6.736;2022-07-05T12:21:17;25.50;32.20
5352;DHT22;2698;51.454;6.736;2022-07-05T12:23:46;25.30;32.70
5352;DHT22;2698;51.454;6.736;2022-07-05T12:26:14;25.30;32.90
5352;DHT22;2698;51.454;6.736;2022-07-05T12:28:41;25.40;32.50
5352;DHT22;2698;51.454;6.736;2022-07-05T12:31:17;25.60;31.90
5352;DHT22;2698;51.454;6.736;2022-07-05T12:33:45;25.50;31.90
5352;DHT22;2698;51.454;6.736;2022-07-05T12:36:12;25.40;31.60
5352;DHT22;2698;51.454;6.736;2022-07-05T12:38:40;24.90;33.50
5352;DHT22;2698;51.454;6.736;2022-07-05T12:41:07;24.50;32.90
5352;DHT22;2698;51.454;6.736;2022-07-05T12:43:48;24.50;33.20
5352;DHT22;2698;51.454;6.736;2022-07-05T12:46:16;24.70;33.20
5352;DHT22;2698;51.454;6.736;2022-07-05T12:48:43;25.00;33.60
5352;DHT22;2698;51.454;6.736;2022-07-05T12:51:11;25.30;33.40
5352;DHT22;2698;51.454;6.736;2022-07-05T12:53:45;25.30;32.90
5352;DHT22;2698;51.454;6.736;2022-07-05T12:56:29;25.00;31.70
5352;DHT22;2698;51.454;6.736;2022-07-05T12:59:14;24.80;33.00
5352;DHT22;2698;51.454;6.736;2022-07-05T13:01:43;24.80;33.20
5352;DHT22;2698;51.454;6.736;2022-07-05T13:04:11;24.20;32.90
5352;DHT22;2698;51.454;6.736;2022-07-05T13:06:56;24.80;34.10
5352;DHT22;2698;51.454;6.736;2022-07-05T13:09:32;25.00;32.70
5352;DHT22;2698;51.454;6.736;2022-07-05T13:12:10;25.00;33.10
5352;DHT22;2698;51.454;6.736;2022-07-05T13:14:38;24.90;32.80
5352;DHT22;2698;51.454;6.736;2022-07-05T13:17:08;25.00;33.10
5352;DHT22;2698;51.454;6.736;2022-07-05T13:19:36;25.10;32.90
5352;DHT22;2698;51.454;6.736;2022-07-05T13:22:04;25.10;32.70
5352;DHT22;2698;51.454;6.736;2022-07-05T13:24:31;25.00;33.90
5352;DHT22;2698;51.454;6.736;2022-07-05T13:26:58;25.10;33.90
5352;DHT22;2698;51.454;6.736;2022-07-05T13:29:25;24.60;34.30
5352;DHT22;2698;51.454;6.736;2022-07-05T13:31:52;24.20;34.80
5352;DHT22;2698;51.454;6.736;2022-07-05T13:34:21;24.50;35.20
5352;DHT22;2698;51.454;6.736;2022-07-05T13:36:49;24.80;35.70
5352;DHT22;2698;51.454;6.736;2022-07-05T13:39:16;24.90;36.50
5352;DHT22;2698;51.454;6.736;2022-07-05T13:41:43;25.30;37.10
5352;DHT22;2698;51.454;6.736;2022-07-05T13:44:10;25.30;35.00
5352;DHT22;2698;51.454;6.736;2022-07-05T13:46:37;25.80;34.70
5352;DHT22;2698;51.454;6.736;2022-07-05T13:49:04;25.40;34.50
5352;DHT22;2698;51.454;6.736;2022-07-05T13:51:32;25.20;34.40
5352;DHT22;2698;51.454;6.736;2022-07-05T13:53:59;24.60;34.50
5352;DHT22;2698;51.454;6.736;2022-07-05T13:56:26;24.20;36.40
5352;DHT22;2698;51.454;6.736;2022-07-05T13:58:54;23.80;36.40
5352;DHT22;2698;51.454;6.736;2022-07-05T14:01:21;23.90;37.10
5352;DHT22;2698;51.454;6.736;2022-07-05T14:03:52;23.90;37.10
5352;DHT22;2698;51.454;6.736;2022-07-05T14:06:19;23.90;37.50
5352;DHT22;2698;51.454;6.736;2022-07-05T14:08:47;23.70;38.40
5352;DHT22;2698;51.454;6.736;2022-07-05T14:11:14;23.90;39.20
5352;DHT22;2698;51.454;6.736;2022-07-05T14:13:40;23.90;39.40
5352;DHT22;2698;51.454;6.736;2022-07-05T14:16:08;23.60;40.30
5352;DHT22;2698;51.454;6.736;2022-07-05T14:18:35;23.90;41.20
5352;DHT22;2698;51.454;6.736;2022-07-05T14:21:03;23.90;41.20
5352;DHT22;2698;51.454;6.736;2022-07-05T14:23:29;23.80;42.00
5352;DHT22;2698;51.454;6.736;2022-07-05T14:25:59;23.80;41.80
5352;DHT22;2698;51.454;6.736;2022-07-05T14:28:26;24.20;41.50
5352;DHT22;2698;51.454;6.736;2022-07-05T14:30:52;24.20;40.70
5352;DHT22;2698;51.454;6.736;2022-07-05T14:33:19;24.10;40.50
5352;DHT22;2698;51.454;6.736;2022-07-05T14:35:47;24.10;41.40
5352;DHT22;2698;51.454;6.736;2022-07-05T14:38:13;24.30;40.60
5352;DHT22;2698;51.454;6.736;2022-07-05T14:40:40;24.30;39.60
5352;DHT22;2698;51.454;6.736;2022-07-05T14:43:08;24.00;39.20
5352;DHT22;2698;51.454;6.736;2022-07-05T14:45:35;24.00;39.60
5352;DHT22;2698;51.454;6.736;2022-07-05T14:48:02;24.40;39.70
5352;DHT22;2698;51.454;6.736;2022-07-05T14:50:29;25.00;39.50
5352;DHT22;2698;51.454;6.736;2022-07-05T14:52:56;25.10;38.90
5352;DHT22;2698;51.454;6.736;2022-07-05T14:55:23;24.60;38.80
5352;DHT22;2698;51.454;6.736;2022-07-05T14:57:50;24.30;38.30
5352;DHT22;2698;51.454;6.736;2022-07-05T15:00:19;24.60;38.70
5352;DHT22;2698;51.454;6.736;2022-07-05T15:02:45;24.60;38.80
5352;DHT22;2698;51.454;6.736;2022-07-05T15:05:12;24.10;39.10
5352;DHT22;2698;51.454;6.736;2022-07-05T15:07:39;24.00;39.30
5352;DHT22;2698;51.454;6.736;2022-07-05T15:10:07;23.80;39.60
5352;DHT22;2698;51.454;6.736;2022-07-05T15:12:34;23.60;39.40
5352;DHT22;2698;51.454;6.736;2022-07-05T15:15:01;23.50;39.50
5352;DHT22;2698;51.454;6.736;2022-07-05T15:17:30;23.40;40.00
5352;DHT22;2698;51.454;6.736;2022-07-05T15:19:59;23.40;41.00
5352;DHT22;2698;51.454;6.736;2022-07-05T15:22:26;23.40;41.10
5352;DHT22;2698;51.454;6.736;2022-07-05T15:24:52;23.20;41.20
5352;DHT22;2698;51.454;6.736;2022-07-05T15:27:20;23.10;41.50
5352;DHT22;2698;51.454;6.736;2022-07-05T15:29:47;23.00;41.60
5352;DHT22;2698;51.454;6.736;2022-07-05T15:32:14;23.10;41.80
5352;DHT22;2698;51.454;6.736;2022-07-05T15:34:42;22.90;41.30
5352;DHT22;2698;51.454;6.736;2022-07-05T15:37:09;22.80;41.90
5352;DHT22;2698;51.454;6.736;2022-07-05T15:39:35;22.70;42.20
5352;DHT22;2698;51.454;6.736;2022-07-05T15:42:04;22.60;42.30
5352;DHT22;2698;51.454;6.736;2022-07-05T15:44:31;22.60;42.10
5352;DHT22;2698;51.454;6.736;2022-07-05T15:46:57;22.50;42.20
5352;DHT22;2698;51.454;6.736;2022-07-05T15:49:30;22.30;42.50
5352;DHT22;2698;51.454;6.736;2022-07-05T15:51:59;22.30;41.90
5352;DHT22;2698;51.454;6.736;2022-07-05T15:54:26;22.40;42.20
5352;DHT22;2698;51.454;6.736;2022-07-05T15:56:53;22.40;42.80
5352;DHT22;2698;51.454;6.736;2022-07-05T15:59:20;22.50;43.30
5352;DHT22;2698;51.454;6.736;2022-07-05T16:01:48;22.50;44.20
5352;DHT22;2698;51.454;6.736;2022-07-05T16:04:14;22.60;44.00
5352;DHT22;2698;51.454;6.736;2022-07-05T16:06:42;22.50;43.40
5352;DHT22;2698;51.454;6.736;2022-07-05T16:09:10;22.40;43.30
5352;DHT22;2698;51.454;6.736;2022-07-05T16:11:37;22.40;44.00